sensor_id;sensor_type;location;lat;lon;timestamp;P1;durP1;ratioP1;P2;durP2;ratioP2
27265;SDS011;14766;51.380;13.762;2022-12-11T00:00:26;20.35;;;11.50;;
27265;SDS011;14766;51.380;13.762;2022-12-11T00:02:54;23.77;;;12.63;;
27265;SDS011;14766;51.380;13.762;2022-12-11T00:05:22;21.38;;;12.10;;
27265;SDS011;14766;51.380;13.762;2022-12-11T00:07:49;21.13;;;12.48;;
27265;SDS011;14766;51.380;13.762;2022-12-11T00:10:16;22.88;;;12.13;;
27265;SDS011;14766;51.380;13.762;2022-12-11T00:12:43;20.38;;;11.85;;
27265;SDS011;14766;51.380;13.762;2022-12-11T00:15:12;22.42;;;12.00;;
27265;SDS011;14766;51.380;13.762;2022-12-11T00:17:39;20.45;;;11.27;;
27265;SDS011;14766;51.380;13.762;2022-12-11T00:20:06;20.08;;;11.43;;
27265;SDS011;14766;51.380;13.762;2022-12-11T00:22:35;21.23;;;11.60;;
27265;SDS011;14766;51.380;13.762;2022-12-11T00:25:04;24.40;;;13.05;;
27265;SDS011;14766;51.380;13.762;2022-12-11T00:27:32;20.63;;;11.70;;
27265;SDS011;14766;51.380;13.762;2022-12-11T00:29:59;20.20;;;12.07;;
27265;SDS011;14766;51.380;13.762;2022-12-11T00:32:26;23.23;;;12.27;;
27265;SDS011;14766;51.380;13.762;2022-12-11T00:34:55;24.17;;;12.70;;
27265;SDS011;14766;51.380;13.762;2022-12-11T00:37:25;26.52;;;13.05;;
27265;SDS011;14766;51.380;13.762;2022-12-11T00:39:55;22.20;;;12.43;;
27265;SDS011;14766;51.380;13.762;2022-12-11T00:42:22;20.48;;;10.95;;
27265;SDS011;14766;51.380;13.762;2022-12-11T00:44:49;23.88;;;12.48;;
27265;SDS011;14766;51.380;13.762;2022-12-11T00:47:16;19.33;;;11.65;;
27265;SDS011;14766;51.380;13.762;2022-12-11T00:49:44;20.17;;;11.43;;
27265;SDS011;14766;51.380;13.762;2022-12-11T00:52:15;22.60;;;10.90;;
27265;SDS011;14766;51.380;13.762;2022-12-11T00:54:43;23.23;;;11.68;;
27265;SDS011;14766;51.380;13.762;2022-12-11T00:57:10;21.10;;;11.93;;
27265;SDS011;14766;51.380;13.762;2022-12-11T00:59:37;19.65;;;10.95;;
27265;SDS011;14766;51.380;13.762;2022-12-11T01:02:05;20.33;;;11.43;;
27265;SDS011;14766;51.380;13.762;2022-12-11T01:04:34;21.27;;;11.82;;
27265;SDS011;14766;51.380;13.762;2022-12-11T01:07:01;20.30;;;11.35;;
27265;SDS011;14766;51.380;13.762;2022-12-11T01:09:28;21.85;;;11.98;;
27265;SDS011;14766;51.380;13.762;2022-12-11T01:12:14;16.52;;;10.02;;
27265;SDS011;14766;51.380;13.762;2022-12-11T01:14:42;22.13;;;11.15;;
27265;SDS011;14766;51.380;13.762;2022-12-11T01:17:09;19.13;;;10.85;;
27265;SDS011;14766;51.380;13.762;2022-12-11T01:19:38;17.08;;;10.27;;
27265;SDS011;14766;51.380;13.762;2022-12-11T01:22:05;22.77;;;11.82;;
27265;SDS011;14766;51.380;13.762;2022-12-11T01:24:32;18.63;;;10.70;;
27265;SDS011;14766;51.380;13.762;2022-12-11T01:27:00;17.85;;;9.93;;
27265;SDS011;14766;51.380;13.762;2022-12-11T01:29:27;19.63;;;10.68;;
27265;SDS011;14766;51.380;13.762;2022-12-11T01:31:54;19.67;;;10.65;;
27265;SDS011;14766;51.380;13.762;2022-12-11T01:34:21;18.40;;;10.68;;
27265;SDS011;14766;51.380;13.762;2022-12-11T01:36:50;19.90;;;10.45;;
27265;SDS011;14766;51.380;13.762;2022-12-11T01:39:18;18.77;;;11.00;;
27265;SDS011;14766;51.380;13.762;2022-12-11T01:41:45;19.58;;;10.45;;
27265;SDS011;14766;51.380;13.762;2022-12-11T01:46:40;22.60;;;11.70;;
27265;SDS011;14766;51.380;13.762;2022-12-11T01:49:09;20.08;;;10.93;;
27265;SDS011;14766;51.380;13.762;2022-12-11T01:51:40;22.38;;;12.57;;
27265;SDS011;14766;51.380;13.762;2022-12-11T01:54:14;23.52;;;12.13;;
27265;SDS011;14766;51.380;13.762;2022-12-11T01:56:45;20.48;;;11.68;;
27265;SDS011;14766;51.380;13.762;2022-12-11T01:59:16;22.67;;;12.90;;
27265;SDS011;14766;51.380;13.762;2022-12-11T02:01:49;24.42;;;13.35;;
27265;SDS011;14766;51.380;13.762;2022-12-11T02:04:37;21.45;;;12.40;;
27265;SDS011;14766;51.380;13.762;2022-12-11T02:07:08;21.23;;;11.00;;
27265;SDS011;14766;51.380;13.762;2022-12-11T02:09:36;19.38;;;10.40;;
27265;SDS011;14766;51.380;13.762;2022-12-11T02:14:48;19.90;;;10.48;;
27265;SDS011;14766;51.380;13.762;2022-12-11T02:25:56;19.35;;;10.65;;
27265;SDS011;14766;51.380;13.762;2022-12-11T02:28:42;18.13;;;10.18;;
27265;SDS011;14766;51.380;13.762;2022-12-11T02:36:37;21.20;;;11.30;;
27265;SDS011;14766;51.380;13.762;2022-12-11T02:39:08;18.63;;;10.07;;
27265;SDS011;14766;51.380;13.762;2022-12-11T02:41:39;19.98;;;11.23;;
27265;SDS011;14766;51.380;13.762;2022-12-11T02:44:09;18.95;;;10.75;;
27265;SDS011;14766;51.380;13.762;2022-12-11T02:46:39;18.92;;;10.77;;
27265;SDS011;14766;51.380;13.762;2022-12-11T02:49:08;20.38;;;10.85;;
27265;SDS011;14766;51.380;13.762;2022-12-11T02:51:38;18.90;;;9.90;;
27265;SDS011;14766;51.380;13.762;2022-12-11T02:54:08;19.10;;;10.85;;
27265;SDS011;14766;51.380;13.762;2022-12-11T02:56:43;21.55;;;10.93;;
27265;SDS011;14766;51.380;13.762;2022-12-11T02:59:50;20.67;;;11.35;;
27265;SDS011;14766;51.380;13.762;2022-12-11T03:02:17;20.30;;;10.85;;
27265;SDS011;14766;51.380;13.762;2022-12-11T03:04:46;22.08;;;11.18;;
27265;SDS011;14766;51.380;13.762;2022-12-11T03:07:15;22.85;;;12.32;;
27265;SDS011;14766;51.380;13.762;2022-12-11T03:09:48;19.63;;;10.95;;
27265;SDS011;14766;51.380;13.762;2022-12-11T03:12:22;22.20;;;11.90;;
27265;SDS011;14766;51.380;13.762;2022-12-11T03:14:58;22.38;;;11.98;;
27265;SDS011;14766;51.380;13.762;2022-12-11T03:17:34;22.42;;;12.73;;
27265;SDS011;14766;51.380;13.762;2022-12-11T03:20:07;20.92;;;11.68;;
27265;SDS011;14766;51.380;13.762;2022-12-11T03:25:13;19.88;;;11.73;;
27265;SDS011;14766;51.380;13.762;2022-12-11T03:30:50;22.17;;;12.50;;
27265;SDS011;14766;51.380;13.762;2022-12-11T03:33:24;19.67;;;11.68;;
27265;SDS011;14766;51.380;13.762;2022-12-11T03:35:58;20.52;;;11.15;;
27265;SDS011;14766;51.380;13.762;2022-12-11T03:38:31;23.60;;;12.70;;
27265;SDS011;14766;51.380;13.762;2022-12-11T03:41:03;22.17;;;11.70;;
27265;SDS011;14766;51.380;13.762;2022-12-11T03:43:44;24.60;;;13.10;;
27265;SDS011;14766;51.380;13.762;2022-12-11T03:46:26;23.13;;;12.00;;
27265;SDS011;14766;51.380;13.762;2022-12-11T03:48:58;19.45;;;10.85;;
27265;SDS011;14766;51.380;13.762;2022-12-11T03:51:40;21.42;;;11.82;;
27265;SDS011;14766;51.380;13.762;2022-12-11T03:54:10;21.73;;;11.90;;
27265;SDS011;14766;51.380;13.762;2022-12-11T03:56:38;21.88;;;12.25;;
27265;SDS011;14766;51.380;13.762;2022-12-11T03:59:08;23.45;;;12.35;;
27265;SDS011;14766;51.380;13.762;2022-12-11T04:01:35;21.40;;;11.90;;
27265;SDS011;14766;51.380;13.762;2022-12-11T04:04:04;22.70;;;12.52;;
27265;SDS011;14766;51.380;13.762;2022-12-11T04:06:31;19.73;;;10.80;;
27265;SDS011;14766;51.380;13.762;2022-12-11T04:08:58;21.67;;;11.48;;
27265;SDS011;14766;51.380;13.762;2022-12-11T04:11:25;21.80;;;12.52;;
27265;SDS011;14766;51.380;13.762;2022-12-11T04:14:02;21.10;;;11.52;;
27265;SDS011;14766;51.380;13.762;2022-12-11T04:16:49;22.42;;;11.57;;
27265;SDS011;14766;51.380;13.762;2022-12-11T04:19:17;21.05;;;10.98;;
27265;SDS011;14766;51.380;13.762;2022-12-11T04:22:03;20.55;;;11.32;;
27265;SDS011;14766;51.380;13.762;2022-12-11T04:24:48;17.55;;;9.93;;
27265;SDS011;14766;51.380;13.762;2022-12-11T04:27:23;20.25;;;11.38;;
27265;SDS011;14766;51.380;13.762;2022-12-11T04:30:34;18.95;;;10.35;;
27265;SDS011;14766;51.380;13.762;2022-12-11T04:33:03;19.30;;;10.52;;
27265;SDS011;14766;51.380;13.762;2022-12-11T04:35:30;21.10;;;11.05;;
27265;SDS011;14766;51.380;13.762;2022-12-11T04:37:57;19.77;;;10.65;;
27265;SDS011;14766;51.380;13.762;2022-12-11T04:40:24;18.45;;;10.50;;
27265;SDS011;14766;51.380;13.762;2022-12-11T04:42:57;21.58;;;10.98;;
27265;SDS011;14766;51.380;13.762;2022-12-11T04:45:28;18.40;;;10.40;;
27265;SDS011;14766;51.380;13.762;2022-12-11T04:48:17;20.98;;;11.20;;
27265;SDS011;14766;51.380;13.762;2022-12-11T04:50:50;20.58;;;9.85;;
27265;SDS011;14766;51.380;13.762;2022-12-11T04:53:41;18.13;;;10.15;;
27265;SDS011;14766;51.380;13.762;2022-12-11T04:56:10;18.70;;;10.43;;
27265;SDS011;14766;51.380;13.762;2022-12-11T04:58:39;20.63;;;11.55;;
27265;SDS011;14766;51.380;13.762;2022-12-11T05:01:18;20.52;;;11.80;;
27265;SDS011;14766;51.380;13.762;2022-12-11T05:03:46;20.40;;;11.35;;
27265;SDS011;14766;51.380;13.762;2022-12-11T05:06:27;19.88;;;11.48;;
27265;SDS011;14766;51.380;13.762;2022-12-11T05:08:57;20.88;;;11.85;;
27265;SDS011;14766;51.380;13.762;2022-12-11T05:11:25;20.27;;;11.50;;
27265;SDS011;14766;51.380;13.762;2022-12-11T05:13:53;24.27;;;12.18;;
27265;SDS011;14766;51.380;13.762;2022-12-11T05:16:21;21.48;;;11.65;;
27265;SDS011;14766;51.380;13.762;2022-12-11T05:18:48;19.60;;;11.90;;
27265;SDS011;14766;51.380;13.762;2022-12-11T05:21:34;20.92;;;11.68;;
27265;SDS011;14766;51.380;13.762;2022-12-11T05:24:05;21.27;;;11.80;;
27265;SDS011;14766;51.380;13.762;2022-12-11T05:26:33;21.50;;;12.43;;
27265;SDS011;14766;51.380;13.762;2022-12-11T05:29:00;21.77;;;12.15;;
27265;SDS011;14766;51.380;13.762;2022-12-11T05:31:28;22.17;;;12.90;;
27265;SDS011;14766;51.380;13.762;2022-12-11T05:33:56;20.40;;;11.57;;
27265;SDS011;14766;51.380;13.762;2022-12-11T05:36:26;20.63;;;12.60;;
27265;SDS011;14766;51.380;13.762;2022-12-11T05:38:56;18.67;;;11.75;;
27265;SDS011;14766;51.380;13.762;2022-12-11T05:41:25;20.92;;;11.43;;
27265;SDS011;14766;51.380;13.762;2022-12-11T05:43:54;20.42;;;12.25;;
27265;SDS011;14766;51.380;13.762;2022-12-11T05:46:22;19.50;;;11.65;;
27265;SDS011;14766;51.380;13.762;2022-12-11T05:48:52;20.63;;;11.82;;
27265;SDS011;14766;51.380;13.762;2022-12-11T05:51:22;18.10;;;10.98;;
27265;SDS011;14766;51.380;13.762;2022-12-11T05:53:50;20.02;;;11.88;;
27265;SDS011;14766;51.380;13.762;2022-12-11T05:56:21;19.02;;;10.88;;
27265;SDS011;14766;51.380;13.762;2022-12-11T05:58:49;18.90;;;11.38;;
27265;SDS011;14766;51.380;13.762;2022-12-11T06:01:36;20.38;;;11.60;;
27265;SDS011;14766;51.380;13.762;2022-12-11T06:04:08;22.05;;;12.15;;
27265;SDS011;14766;51.380;13.762;2022-12-11T06:06:38;21.42;;;11.90;;
27265;SDS011;14766;51.380;13.762;2022-12-11T06:09:06;21.90;;;11.40;;
27265;SDS011;14766;51.380;13.762;2022-12-11T06:11:33;19.55;;;11.00;;
27265;SDS011;14766;51.380;13.762;2022-12-11T06:14:01;17.80;;;10.90;;
27265;SDS011;14766;51.380;13.762;2022-12-11T06:16:28;19.58;;;11.23;;
27265;SDS011;14766;51.380;13.762;2022-12-11T06:18:55;18.42;;;11.30;;
27265;SDS011;14766;51.380;13.762;2022-12-11T06:21:27;20.35;;;10.88;;
27265;SDS011;14766;51.380;13.762;2022-12-11T06:23:57;17.60;;;10.38;;
27265;SDS011;14766;51.380;13.762;2022-12-11T06:26:26;18.15;;;10.27;;
27265;SDS011;14766;51.380;13.762;2022-12-11T06:28:55;17.05;;;10.25;;
27265;SDS011;14766;51.380;13.762;2022-12-11T06:31:23;15.55;;;9.55;;
27265;SDS011;14766;51.380;13.762;2022-12-11T06:33:51;17.58;;;10.32;;
27265;SDS011;14766;51.380;13.762;2022-12-11T06:36:21;16.40;;;9.98;;
27265;SDS011;14766;51.380;13.762;2022-12-11T06:38:49;16.92;;;10.30;;
27265;SDS011;14766;51.380;13.762;2022-12-11T06:41:17;15.32;;;9.68;;
27265;SDS011;14766;51.380;13.762;2022-12-11T06:43:46;15.57;;;9.32;;
27265;SDS011;14766;51.380;13.762;2022-12-11T06:46:14;15.32;;;9.43;;
27265;SDS011;14766;51.380;13.762;2022-12-11T06:48:44;15.82;;;8.93;;
27265;SDS011;14766;51.380;13.762;2022-12-11T06:51:13;17.67;;;10.40;;
27265;SDS011;14766;51.380;13.762;2022-12-11T06:53:41;18.05;;;9.82;;
27265;SDS011;14766;51.380;13.762;2022-12-11T06:56:13;16.75;;;9.68;;
27265;SDS011;14766;51.380;13.762;2022-12-11T06:58:41;15.45;;;10.05;;
27265;SDS011;14766;51.380;13.762;2022-12-11T07:01:27;14.80;;;8.93;;
27265;SDS011;14766;51.380;13.762;2022-12-11T07:03:56;15.90;;;9.68;;
27265;SDS011;14766;51.380;13.762;2022-12-11T07:06:25;17.85;;;10.43;;
27265;SDS011;14766;51.380;13.762;2022-12-11T07:08:53;16.15;;;9.55;;
27265;SDS011;14766;51.380;13.762;2022-12-11T07:11:21;15.98;;;9.43;;
27265;SDS011;14766;51.380;13.762;2022-12-11T07:13:49;15.27;;;8.98;;
27265;SDS011;14766;51.380;13.762;2022-12-11T07:16:16;14.57;;;9.25;;
27265;SDS011;14766;51.380;13.762;2022-12-11T07:18:47;14.27;;;8.60;;
27265;SDS011;14766;51.380;13.762;2022-12-11T07:21:17;15.40;;;9.13;;
27265;SDS011;14766;51.380;13.762;2022-12-11T07:23:45;12.77;;;8.05;;
27265;SDS011;14766;51.380;13.762;2022-12-11T07:26:14;14.63;;;8.80;;
27265;SDS011;14766;51.380;13.762;2022-12-11T07:28:42;15.00;;;8.20;;
27265;SDS011;14766;51.380;13.762;2022-12-11T07:31:13;14.13;;;8.15;;
27265;SDS011;14766;51.380;13.762;2022-12-11T07:33:43;14.35;;;8.52;;
27265;SDS011;14766;51.380;13.762;2022-12-11T07:36:11;15.23;;;8.80;;
27265;SDS011;14766;51.380;13.762;2022-12-11T07:38:39;16.20;;;8.48;;
27265;SDS011;14766;51.380;13.762;2022-12-11T07:41:09;13.85;;;8.07;;
27265;SDS011;14766;51.380;13.762;2022-12-11T07:43:38;16.17;;;8.68;;
27265;SDS011;14766;51.380;13.762;2022-12-11T07:46:06;15.23;;;9.85;;
27265;SDS011;14766;51.380;13.762;2022-12-11T07:48:39;15.32;;;9.88;;
27265;SDS011;14766;51.380;13.762;2022-12-11T07:53:37;13.23;;;7.32;;
27265;SDS011;14766;51.380;13.762;2022-12-11T07:56:05;13.57;;;7.90;;
27265;SDS011;14766;51.380;13.762;2022-12-11T07:58:33;13.73;;;8.05;;
27265;SDS011;14766;51.380;13.762;2022-12-11T08:01:02;12.80;;;7.20;;
27265;SDS011;14766;51.380;13.762;2022-12-11T08:03:30;15.10;;;7.82;;
27265;SDS011;14766;51.380;13.762;2022-12-11T08:05:57;13.73;;;8.40;;
27265;SDS011;14766;51.380;13.762;2022-12-11T08:08:24;13.90;;;7.20;;
27265;SDS011;14766;51.380;13.762;2022-12-11T08:10:51;14.18;;;8.38;;
27265;SDS011;14766;51.380;13.762;2022-12-11T08:13:18;13.10;;;8.38;;
27265;SDS011;14766;51.380;13.762;2022-12-11T08:15:46;10.95;;;6.90;;
27265;SDS011;14766;51.380;13.762;2022-12-11T08:18:13;13.90;;;8.05;;
27265;SDS011;14766;51.380;13.762;2022-12-11T08:20:39;14.05;;;7.80;;
27265;SDS011;14766;51.380;13.762;2022-12-11T08:23:06;14.63;;;8.45;;
27265;SDS011;14766;51.380;13.762;2022-12-11T08:25:34;13.82;;;7.78;;
27265;SDS011;14766;51.380;13.762;2022-12-11T08:28:03;15.20;;;7.95;;
27265;SDS011;14766;51.380;13.762;2022-12-11T08:30:30;14.27;;;8.32;;
27265;SDS011;14766;51.380;13.762;2022-12-11T08:32:57;13.27;;;7.53;;
27265;SDS011;14766;51.380;13.762;2022-12-11T08:35:25;15.00;;;8.10;;
27265;SDS011;14766;51.380;13.762;2022-12-11T08:37:52;12.93;;;7.18;;
27265;SDS011;14766;51.380;13.762;2022-12-11T08:40:19;13.30;;;7.63;;
27265;SDS011;14766;51.380;13.762;2022-12-11T08:42:46;12.15;;;7.00;;
27265;SDS011;14766;51.380;13.762;2022-12-11T08:45:14;14.30;;;8.43;;
27265;SDS011;14766;51.380;13.762;2022-12-11T08:47:42;14.90;;;8.65;;
27265;SDS011;14766;51.380;13.762;2022-12-11T08:50:10;16.67;;;10.05;;
27265;SDS011;14766;51.380;13.762;2022-12-11T08:52:39;17.05;;;8.98;;
27265;SDS011;14766;51.380;13.762;2022-12-11T08:55:06;14.85;;;8.43;;
27265;SDS011;14766;51.380;13.762;2022-12-11T08:57:34;13.82;;;8.60;;
27265;SDS011;14766;51.380;13.762;2022-12-11T09:00:01;13.30;;;8.40;;
27265;SDS011;14766;51.380;13.762;2022-12-11T09:02:28;16.52;;;9.52;;
27265;SDS011;14766;51.380;13.762;2022-12-11T09:04:55;15.45;;;8.65;;
27265;SDS011;14766;51.380;13.762;2022-12-11T09:07:22;13.68;;;7.88;;
27265;SDS011;14766;51.380;13.762;2022-12-11T09:09:53;13.95;;;8.02;;
27265;SDS011;14766;51.380;13.762;2022-12-11T09:12:20;13.48;;;7.60;;
27265;SDS011;14766;51.380;13.762;2022-12-11T09:14:47;14.20;;;8.00;;
27265;SDS011;14766;51.380;13.762;2022-12-11T09:17:16;14.00;;;8.07;;
27265;SDS011;14766;51.380;13.762;2022-12-11T09:19:43;16.88;;;9.32;;
27265;SDS011;14766;51.380;13.762;2022-12-11T09:22:10;15.07;;;9.30;;
27265;SDS011;14766;51.380;13.762;2022-12-11T09:24:38;15.85;;;8.70;;
27265;SDS011;14766;51.380;13.762;2022-12-11T09:27:05;17.55;;;9.77;;
27265;SDS011;14766;51.380;13.762;2022-12-11T09:29:36;13.95;;;8.88;;
27265;SDS011;14766;51.380;13.762;2022-12-11T09:32:04;15.52;;;9.00;;
27265;SDS011;14766;51.380;13.762;2022-12-11T09:34:31;16.38;;;9.73;;
27265;SDS011;14766;51.380;13.762;2022-12-11T09:36:58;14.73;;;8.88;;
27265;SDS011;14766;51.380;13.762;2022-12-11T09:39:25;13.98;;;8.65;;
27265;SDS011;14766;51.380;13.762;2022-12-11T09:46:59;14.02;;;8.63;;
27265;SDS011;14766;51.380;13.762;2022-12-11T09:49:32;16.88;;;8.90;;
27265;SDS011;14766;51.380;13.762;2022-12-11T09:52:56;17.27;;;8.98;;
27265;SDS011;14766;51.380;13.762;2022-12-11T09:55:18;15.82;;;9.52;;
27265;SDS011;14766;51.380;13.762;2022-12-11T09:57:56;18.55;;;10.60;;
27265;SDS011;14766;51.380;13.762;2022-12-11T10:00:32;15.77;;;9.18;;
27265;SDS011;14766;51.380;13.762;2022-12-11T10:17:38;16.20;;;9.73;;
27265;SDS011;14766;51.380;13.762;2022-12-11T10:20:09;17.27;;;10.13;;
27265;SDS011;14766;51.380;13.762;2022-12-11T10:22:59;20.15;;;11.27;;
27265;SDS011;14766;51.380;13.762;2022-12-11T10:25:30;15.57;;;9.60;;
27265;SDS011;14766;51.380;13.762;2022-12-11T10:27:59;16.02;;;9.90;;
27265;SDS011;14766;51.380;13.762;2022-12-11T10:33:25;17.38;;;9.68;;
27265;SDS011;14766;51.380;13.762;2022-12-11T10:36:18;18.75;;;9.93;;
27265;SDS011;14766;51.380;13.762;2022-12-11T10:38:51;15.10;;;8.90;;
27265;SDS011;14766;51.380;13.762;2022-12-11T10:41:20;16.95;;;9.88;;
27265;SDS011;14766;51.380;13.762;2022-12-11T10:43:50;16.70;;;9.50;;
27265;SDS011;14766;51.380;13.762;2022-12-11T10:46:25;18.40;;;9.57;;
27265;SDS011;14766;51.380;13.762;2022-12-11T10:48:55;21.65;;;10.85;;
27265;SDS011;14766;51.380;13.762;2022-12-11T10:51:25;19.00;;;10.40;;
27265;SDS011;14766;51.380;13.762;2022-12-11T10:54:15;17.25;;;10.40;;
27265;SDS011;14766;51.380;13.762;2022-12-11T10:56:54;21.02;;;10.57;;
27265;SDS011;14766;51.380;13.762;2022-12-11T10:59:38;17.48;;;10.55;;
27265;SDS011;14766;51.380;13.762;2022-12-11T11:02:23;17.85;;;10.50;;
27265;SDS011;14766;51.380;13.762;2022-12-11T11:04:52;18.75;;;10.75;;
27265;SDS011;14766;51.380;13.762;2022-12-11T11:07:23;18.98;;;10.82;;
27265;SDS011;14766;51.380;13.762;2022-12-11T11:13:00;22.92;;;12.23;;
27265;SDS011;14766;51.380;13.762;2022-12-11T11:15:28;19.23;;;10.95;;
27265;SDS011;14766;51.380;13.762;2022-12-11T11:18:03;19.20;;;10.93;;
27265;SDS011;14766;51.380;13.762;2022-12-11T11:20:41;16.13;;;9.75;;
27265;SDS011;14766;51.380;13.762;2022-12-11T11:23:13;21.00;;;12.77;;
27265;SDS011;14766;51.380;13.762;2022-12-11T11:25:58;20.65;;;12.43;;
27265;SDS011;14766;51.380;13.762;2022-12-11T11:28:28;18.08;;;10.45;;
27265;SDS011;14766;51.380;13.762;2022-12-11T11:31:14;18.52;;;11.48;;
27265;SDS011;14766;51.380;13.762;2022-12-11T11:33:46;22.52;;;12.23;;
27265;SDS011;14766;51.380;13.762;2022-12-11T11:36:25;15.80;;;10.63;;
27265;SDS011;14766;51.380;13.762;2022-12-11T11:44:46;19.05;;;10.93;;
27265;SDS011;14766;51.380;13.762;2022-12-11T11:47:29;19.33;;;10.60;;
27265;SDS011;14766;51.380;13.762;2022-12-11T11:50:29;18.33;;;11.10;;
27265;SDS011;14766;51.380;13.762;2022-12-11T11:58:26;20.33;;;11.18;;
27265;SDS011;14766;51.380;13.762;2022-12-11T12:01:13;18.20;;;12.02;;
27265;SDS011;14766;51.380;13.762;2022-12-11T12:03:41;18.83;;;10.52;;
27265;SDS011;14766;51.380;13.762;2022-12-11T12:06:13;17.52;;;10.40;;
27265;SDS011;14766;51.380;13.762;2022-12-11T12:11:40;19.95;;;11.32;;
27265;SDS011;14766;51.380;13.762;2022-12-11T12:14:25;18.67;;;11.82;;
27265;SDS011;14766;51.380;13.762;2022-12-11T12:17:43;20.98;;;10.98;;
27265;SDS011;14766;51.380;13.762;2022-12-11T12:33:47;33.63;;;19.55;;
27265;SDS011;14766;51.380;13.762;2022-12-11T12:38:51;36.38;;;18.90;;
27265;SDS011;14766;51.380;13.762;2022-12-11T12:41:25;62.95;;;32.13;;
27265;SDS011;14766;51.380;13.762;2022-12-11T12:44:18;45.88;;;24.30;;
27265;SDS011;14766;51.380;13.762;2022-12-11T12:46:50;43.80;;;23.60;;
27265;SDS011;14766;51.380;13.762;2022-12-11T12:52:01;32.60;;;17.67;;
27265;SDS011;14766;51.380;13.762;2022-12-11T12:54:30;24.52;;;14.30;;
27265;SDS011;14766;51.380;13.762;2022-12-11T12:57:00;25.90;;;14.70;;
27265;SDS011;14766;51.380;13.762;2022-12-11T12:59:29;23.55;;;14.32;;
27265;SDS011;14766;51.380;13.762;2022-12-11T13:02:00;22.15;;;12.82;;
27265;SDS011;14766;51.380;13.762;2022-12-11T13:04:40;20.52;;;12.50;;
27265;SDS011;14766;51.380;13.762;2022-12-11T13:07:25;18.35;;;11.60;;
27265;SDS011;14766;51.380;13.762;2022-12-11T13:10:06;20.52;;;11.95;;
27265;SDS011;14766;51.380;13.762;2022-12-11T13:12:52;17.05;;;10.48;;
27265;SDS011;14766;51.380;13.762;2022-12-11T13:15:27;17.95;;;10.98;;
27265;SDS011;14766;51.380;13.762;2022-12-11T13:18:31;19.38;;;10.57;;
27265;SDS011;14766;51.380;13.762;2022-12-11T13:21:21;14.75;;;9.80;;
27265;SDS011;14766;51.380;13.762;2022-12-11T13:26:40;17.02;;;9.93;;
27265;SDS011;14766;51.380;13.762;2022-12-11T13:29:30;17.65;;;10.68;;
27265;SDS011;14766;51.380;13.762;2022-12-11T13:32:42;17.75;;;9.95;;
27265;SDS011;14766;51.380;13.762;2022-12-11T13:34:51;16.48;;;9.35;;
27265;SDS011;14766;51.380;13.762;2022-12-11T13:37:29;15.60;;;9.80;;
27265;SDS011;14766;51.380;13.762;2022-12-11T13:40:00;17.30;;;10.00;;
27265;SDS011;14766;51.380;13.762;2022-12-11T13:42:35;19.20;;;11.13;;
27265;SDS011;14766;51.380;13.762;2022-12-11T13:45:17;19.80;;;11.57;;
27265;SDS011;14766;51.380;13.762;2022-12-11T13:47:49;18.13;;;11.60;;
27265;SDS011;14766;51.380;13.762;2022-12-11T13:50:34;21.77;;;12.77;;
27265;SDS011;14766;51.380;13.762;2022-12-11T13:53:02;21.57;;;11.30;;
27265;SDS011;14766;51.380;13.762;2022-12-11T13:55:31;20.17;;;11.88;;
27265;SDS011;14766;51.380;13.762;2022-12-11T13:58:00;21.52;;;11.75;;
27265;SDS011;14766;51.380;13.762;2022-12-11T14:00:28;18.35;;;11.82;;
27265;SDS011;14766;51.380;13.762;2022-12-11T14:02:59;20.75;;;12.32;;
27265;SDS011;14766;51.380;13.762;2022-12-11T14:05:30;21.50;;;12.48;;
27265;SDS011;14766;51.380;13.762;2022-12-11T14:08:00;21.80;;;11.93;;
27265;SDS011;14766;51.380;13.762;2022-12-11T14:10:34;19.95;;;11.82;;
27265;SDS011;14766;51.380;13.762;2022-12-11T14:15:50;21.15;;;11.90;;
27265;SDS011;14766;51.380;13.762;2022-12-11T14:18:22;18.77;;;11.45;;
27265;SDS011;14766;51.380;13.762;2022-12-11T14:20:56;19.17;;;11.45;;
27265;SDS011;14766;51.380;13.762;2022-12-11T14:25:58;23.13;;;12.35;;
27265;SDS011;14766;51.380;13.762;2022-12-11T14:28:28;19.95;;;12.63;;
27265;SDS011;14766;51.380;13.762;2022-12-11T14:31:02;22.20;;;12.88;;
27265;SDS011;14766;51.380;13.762;2022-12-11T14:33:32;22.02;;;12.27;;
27265;SDS011;14766;51.380;13.762;2022-12-11T14:36:03;18.17;;;10.70;;
27265;SDS011;14766;51.380;13.762;2022-12-11T14:38:36;17.23;;;11.00;;
27265;SDS011;14766;51.380;13.762;2022-12-11T14:41:27;18.02;;;11.65;;
27265;SDS011;14766;51.380;13.762;2022-12-11T14:44:03;22.10;;;11.63;;
27265;SDS011;14766;51.380;13.762;2022-12-11T14:46:40;18.30;;;10.80;;
27265;SDS011;14766;51.380;13.762;2022-12-11T14:49:22;17.75;;;10.77;;
27265;SDS011;14766;51.380;13.762;2022-12-11T14:51:59;18.92;;;10.80;;
27265;SDS011;14766;51.380;13.762;2022-12-11T14:57:04;17.05;;;10.85;;
27265;SDS011;14766;51.380;13.762;2022-12-11T14:59:40;16.33;;;10.27;;
27265;SDS011;14766;51.380;13.762;2022-12-11T15:02:22;17.58;;;10.63;;
27265;SDS011;14766;51.380;13.762;2022-12-11T15:10:33;15.18;;;9.20;;
27265;SDS011;14766;51.380;13.762;2022-12-11T15:13:23;14.90;;;9.40;;
27265;SDS011;14766;51.380;13.762;2022-12-11T15:15:51;18.23;;;9.50;;
27265;SDS011;14766;51.380;13.762;2022-12-11T15:20:52;15.52;;;9.43;;
27265;SDS011;14766;51.380;13.762;2022-12-11T15:23:23;16.38;;;9.65;;
27265;SDS011;14766;51.380;13.762;2022-12-11T15:25:51;15.88;;;9.35;;
27265;SDS011;14766;51.380;13.762;2022-12-11T15:28:24;17.20;;;9.57;;
27265;SDS011;14766;51.380;13.762;2022-12-11T15:30:59;14.88;;;9.65;;
27265;SDS011;14766;51.380;13.762;2022-12-11T15:33:43;16.88;;;9.68;;
27265;SDS011;14766;51.380;13.762;2022-12-11T15:39:12;20.23;;;11.48;;
27265;SDS011;14766;51.380;13.762;2022-12-11T15:41:40;19.45;;;11.27;;
27265;SDS011;14766;51.380;13.762;2022-12-11T15:44:10;18.38;;;10.25;;
27265;SDS011;14766;51.380;13.762;2022-12-11T15:46:45;17.80;;;10.00;;
27265;SDS011;14766;51.380;13.762;2022-12-11T15:49:12;16.80;;;10.68;;
27265;SDS011;14766;51.380;13.762;2022-12-11T15:51:40;17.42;;;10.43;;
27265;SDS011;14766;51.380;13.762;2022-12-11T15:54:08;16.13;;;10.32;;
27265;SDS011;14766;51.380;13.762;2022-12-11T15:56:35;15.93;;;10.00;;
27265;SDS011;14766;51.380;13.762;2022-12-11T15:59:03;18.80;;;10.60;;
27265;SDS011;14766;51.380;13.762;2022-12-11T16:01:32;17.83;;;10.25;;
27265;SDS011;14766;51.380;13.762;2022-12-11T16:03:59;18.85;;;11.00;;
27265;SDS011;14766;51.380;13.762;2022-12-11T16:06:30;16.13;;;9.27;;
27265;SDS011;14766;51.380;13.762;2022-12-11T16:08:58;19.25;;;10.43;;
27265;SDS011;14766;51.380;13.762;2022-12-11T16:11:25;17.38;;;9.75;;
27265;SDS011;14766;51.380;13.762;2022-12-11T16:13:52;16.88;;;9.48;;
27265;SDS011;14766;51.380;13.762;2022-12-11T16:16:19;19.42;;;10.57;;
27265;SDS011;14766;51.380;13.762;2022-12-11T16:18:48;17.42;;;10.35;;
27265;SDS011;14766;51.380;13.762;2022-12-11T16:21:16;16.60;;;10.85;;
27265;SDS011;14766;51.380;13.762;2022-12-11T16:23:47;19.52;;;11.50;;
27265;SDS011;14766;51.380;13.762;2022-12-11T16:26:14;19.50;;;11.38;;
27265;SDS011;14766;51.380;13.762;2022-12-11T16:28:41;16.90;;;10.60;;